createdAt,value
2023-01-11T00:00:25.714Z,1.66
2023-01-11T00:05:28.727Z,1.71
2023-01-11T00:10:30.253Z,1.89
2023-01-11T00:15:31.915Z,1.71
2023-01-11T00:20:34.905Z,1.84
2023-01-11T00:25:36.720Z,1.82
2023-01-11T00:30:38.262Z,1.88
2023-01-11T00:35:41.372Z,1.94
2023-01-11T00:40:42.787Z,1.96
2023-01-11T00:45:44.284Z,2.00
2023-01-11T00:50:47.120Z,2.08
2023-01-11T00:55:48.633Z,2.08
2023-01-11T01:00:50.137Z,2.01
2023-01-11T01:05:55.497Z,2.08
2023-01-11T01:10:57.050Z,2.12
2023-01-11T01:15:58.546Z,2.14
2023-01-11T01:21:01.444Z,2.17
2023-01-11T01:26:03.564Z,2.18
2023-01-11T01:31:05.158Z,2.16
2023-01-11T01:36:08.804Z,2.23
2023-01-11T01:41:12.061Z,2.31
2023-01-11T01:46:14.325Z,2.32
2023-01-11T01:51:21.224Z,2.35
2023-01-11T01:56:27.194Z,2.35
2023-01-11T02:01:30.169Z,2.43
2023-01-11T02:06:34.193Z,2.41
2023-01-11T02:11:36.057Z,2.43
2023-01-11T02:16:37.714Z,2.47
2023-01-11T02:21:55.734Z,2.44
2023-01-11T02:27:23.005Z,2.58
2023-01-11T02:32:34.548Z,2.59
2023-01-11T02:37:42.806Z,2.50
2023-01-11T02:42:52.170Z,2.42
2023-01-11T02:48:00.113Z,2.52
2023-01-11T02:53:07.792Z,2.51
2023-01-11T02:58:11.179Z,2.64
2023-01-11T03:03:17.455Z,2.60
2023-01-11T03:08:47.128Z,2.54
2023-01-11T03:13:59.594Z,2.65
2023-01-11T03:19:13.374Z,2.64
2023-01-11T03:24:24.537Z,2.59
2023-01-11T03:29:31.158Z,2.68
2023-01-11T03:34:37.611Z,2.78
2023-01-11T03:39:45.017Z,2.72
2023-01-11T03:44:51.065Z,2.68
2023-01-11T03:49:58.704Z,2.72
2023-01-11T03:55:01.379Z,2.84
2023-01-11T04:00:05.467Z,2.90
2023-01-11T04:05:10.911Z,2.84
2023-01-11T04:10:12.436Z,2.82
2023-01-11T04:15:14.291Z,3.02
2023-01-11T04:20:17.493Z,3.03
2023-01-11T04:25:18.998Z,3.06
2023-01-11T04:30:20.866Z,3.11
2023-01-11T04:35:23.747Z,3.11
2023-01-11T04:40:25.814Z,3.06
2023-01-11T04:45:27.377Z,3.10
2023-01-11T04:50:30.225Z,3.12
2023-01-11T04:55:31.776Z,3.01
2023-01-11T05:00:33.378Z,3.19
2023-01-11T05:05:36.278Z,3.20
2023-01-11T05:10:37.819Z,3.32
2023-01-11T05:15:39.304Z,3.14
2023-01-11T05:20:42.248Z,3.18
2023-01-11T05:25:46.021Z,3.21
2023-01-11T05:30:51.151Z,3.25
2023-01-11T05:35:58.304Z,3.30
2023-01-11T05:41:01.381Z,3.21
2023-01-11T05:46:03.071Z,3.10
2023-01-11T05:51:06.038Z,3.22
2023-01-11T05:56:07.858Z,3.03
2023-01-11T06:01:12.692Z,2.97
2023-01-11T06:06:16.953Z,2.96
2023-01-11T06:11:18.533Z,2.96
2023-01-11T06:16:20.976Z,2.79
2023-01-11T06:21:23.918Z,2.90
2023-01-11T06:26:25.426Z,3.00
2023-01-11T06:31:26.934Z,3.00
2023-01-11T06:36:30.036Z,2.97
2023-01-11T06:41:32.027Z,2.84
2023-01-11T06:46:33.654Z,2.73
2023-01-11T06:51:36.468Z,2.78
2023-01-11T06:56:38.006Z,2.77
2023-01-11T07:01:39.686Z,2.89
2023-01-11T07:06:42.641Z,2.78
2023-01-11T07:11:44.215Z,2.76
2023-01-11T07:16:45.813Z,2.93
2023-01-11T07:21:48.679Z,2.94
2023-01-11T07:26:50.255Z,3.07
2023-01-11T07:31:51.835Z,3.08
2023-01-11T07:36:54.737Z,3.03
2023-01-11T07:41:56.215Z,3.02
2023-01-11T07:46:57.849Z,3.10
2023-01-11T07:52:00.773Z,3.14
2023-01-11T07:57:02.318Z,3.22
2023-01-11T08:02:03.843Z,3.20
2023-01-11T08:07:06.691Z,3.26
2023-01-11T08:12:08.365Z,3.38
2023-01-11T08:17:12.617Z,3.38
2023-01-11T08:22:15.616Z,3.55
2023-01-11T08:27:17.183Z,3.68
2023-01-11T08:32:18.755Z,3.92
2023-01-11T08:37:21.632Z,4.06
2023-01-11T08:42:23.072Z,4.28
2023-01-11T08:47:24.594Z,4.26
2023-01-11T08:52:27.490Z,4.36
2023-01-11T08:57:29.049Z,4.43
2023-01-11T09:02:30.553Z,4.43
2023-01-11T09:07:33.565Z,4.48
2023-01-11T09:12:35.330Z,4.63
2023-01-11T09:17:36.956Z,4.71
2023-01-11T09:22:40.143Z,4.71
2023-01-11T09:27:42.860Z,4.78
2023-01-11T09:32:45.872Z,4.89
2023-01-11T09:37:49.626Z,4.71
2023-01-11T09:42:51.991Z,4.83
2023-01-11T09:47:56.094Z,4.96
2023-01-11T09:53:00.923Z,4.94
2023-01-11T09:58:23.033Z,5.09
2023-01-11T10:03:48.741Z,5.11
2023-01-11T10:18:23.744Z,5.30
2023-01-11T10:20:13.932Z,5.54
2023-01-11T10:25:20.375Z,5.51
2023-01-11T10:30:26.850Z,5.68
2023-01-11T10:35:33.343Z,5.70
2023-01-11T10:40:44.414Z,5.87
2023-01-11T10:45:49.542Z,5.90
2023-01-11T10:50:59.886Z,5.81
2023-01-11T10:56:13.105Z,5.82
2023-01-11T11:01:25.728Z,5.79
2023-01-11T11:06:39.813Z,5.71
2023-01-11T11:11:47.946Z,5.91
2023-01-11T11:17:01.344Z,5.88
2023-01-11T11:22:02.842Z,5.77
2023-01-11T11:27:17.947Z,5.96
2023-01-11T11:32:25.487Z,6.01
2023-01-11T11:37:31.549Z,6.14
2023-01-11T11:42:34.399Z,6.40
2023-01-11T11:47:36.558Z,6.24
2023-01-11T11:52:41.477Z,6.31
2023-01-11T11:57:44.480Z,6.28
2023-01-11T12:02:50.264Z,6.21
2023-01-11T12:07:55.392Z,6.21
2023-01-11T12:13:00.383Z,6.14
2023-01-11T12:18:18.861Z,6.12
2023-01-11T12:23:21.879Z,6.17
2023-01-11T12:28:35.206Z,6.18
2023-01-11T12:33:44.971Z,6.20
2023-01-11T12:38:57.579Z,6.17
2023-01-11T12:44:07.096Z,6.24
2023-01-11T12:49:23.422Z,6.23
2023-01-11T12:54:43.749Z,6.20
2023-01-11T13:00:27.152Z,6.11
2023-01-11T13:05:36.010Z,6.09
2023-01-11T13:10:51.288Z,6.02
2023-01-11T13:16:00.571Z,6.07
2023-01-11T13:21:12.455Z,5.99
2023-01-11T13:26:21.219Z,6.02
2023-01-11T13:31:23.829Z,5.87
2023-01-11T13:36:33.155Z,5.88
2023-01-11T13:41:41.170Z,6.03
2023-01-11T13:46:53.709Z,6.04
2023-01-11T13:51:59.993Z,6.02
2023-01-11T13:57:06.916Z,6.00
2023-01-11T14:02:15.696Z,5.99
2023-01-11T14:07:32.233Z,6.04
2023-01-11T14:12:51.567Z,6.02
2023-01-11T14:18:10.221Z,6.02
2023-01-11T14:23:16.386Z,6.11
2023-01-11T14:28:38.769Z,5.91
2023-01-11T14:34:25.824Z,5.96
2023-01-11T14:39:52.915Z,6.10
2023-01-11T14:45:15.777Z,6.11
2023-01-11T14:50:27.497Z,6.10
2023-01-11T14:55:35.235Z,6.22
2023-01-11T15:00:57.435Z,6.22
2023-01-11T15:06:01.978Z,6.18
2023-01-11T15:11:20.695Z,6.22
2023-01-11T15:16:24.091Z,6.27
2023-01-11T15:21:28.430Z,6.22
2023-01-11T15:26:31.434Z,6.26
2023-01-11T15:31:42.862Z,6.22
2023-01-11T15:36:53.961Z,6.27
2023-01-11T15:42:31.408Z,6.16
2023-01-11T15:47:55.486Z,6.28
2023-01-11T15:53:41.388Z,6.35
2023-01-11T15:59:10.313Z,6.02
2023-01-11T16:04:27.790Z,5.90
2023-01-11T16:09:44.369Z,5.94
2023-01-11T16:15:16.188Z,6.01
2023-01-11T16:20:27.270Z,5.87
2023-01-11T16:25:30.691Z,5.96
2023-01-11T16:30:34.025Z,5.87
2023-01-11T16:35:35.709Z,5.82
2023-01-11T16:40:41.591Z,5.83
2023-01-11T16:45:46.505Z,5.86
2023-01-11T16:50:59.297Z,5.91
2023-01-11T16:56:03.227Z,6.09
2023-01-11T17:01:08.184Z,6.17
2023-01-11T17:06:27.251Z,6.22
2023-01-11T17:11:34.486Z,6.08
2023-01-11T17:16:40.161Z,6.12
2023-01-11T17:21:47.407Z,6.20
2023-01-11T17:26:51.211Z,6.03
2023-01-11T17:31:55.531Z,6.04
2023-01-11T17:36:58.141Z,5.97
2023-01-11T17:42:01.452Z,6.03
2023-01-11T17:47:07.911Z,5.89
2023-01-11T17:52:16.486Z,5.90
2023-01-11T17:57:18.038Z,5.77
2023-01-11T18:02:20.959Z,5.85
2023-01-11T18:07:22.552Z,5.89
2023-01-11T18:12:29.108Z,5.85
2023-01-11T18:17:36.838Z,5.81
2023-01-11T18:22:39.188Z,5.99
2023-01-11T18:27:40.820Z,5.81
2023-01-11T18:32:43.958Z,5.70
2023-01-11T18:37:45.877Z,5.65
2023-01-11T18:42:50.437Z,5.73
2023-01-11T18:47:53.352Z,5.44
2023-01-11T18:52:54.913Z,5.59
2023-01-11T18:57:58.298Z,5.41
2023-01-11T19:03:03.043Z,5.24
2023-01-11T19:08:04.981Z,5.25
2023-01-11T19:13:06.510Z,5.17
2023-01-11T19:18:09.504Z,5.05
2023-01-11T19:23:11.050Z,5.03
2023-01-11T19:28:12.565Z,4.97
2023-01-11T19:33:15.475Z,5.04
2023-01-11T19:38:17.368Z,5.08
2023-01-11T19:43:18.919Z,5.09
2023-01-11T19:48:21.816Z,5.05
2023-01-11T19:53:23.478Z,5.00
2023-01-11T19:58:25.053Z,5.09
2023-01-11T20:03:28.424Z,5.07
2023-01-11T20:08:30.113Z,5.23
2023-01-11T20:13:31.610Z,5.03
2023-01-11T20:18:34.554Z,5.12
2023-01-11T20:23:36.856Z,5.09
2023-01-11T20:28:38.378Z,4.94
2023-01-11T20:33:41.302Z,4.63
2023-01-11T20:38:44.034Z,4.98
2023-01-11T20:43:45.557Z,4.98
2023-01-11T20:48:49.277Z,4.83
2023-01-11T20:53:51.283Z,4.84
2023-01-11T20:58:52.810Z,4.87
2023-01-11T21:03:58.778Z,4.92
2023-01-11T21:09:01.598Z,4.73
2023-01-11T21:14:04.350Z,4.60
2023-01-11T21:19:07.668Z,4.65
2023-01-11T21:24:11.886Z,4.45
2023-01-11T21:29:13.542Z,4.38
2023-01-11T21:34:16.521Z,4.24
2023-01-11T21:39:18.062Z,4.30
2023-01-11T21:44:21.055Z,4.27
2023-01-11T21:49:23.991Z,4.30
2023-01-11T21:54:25.779Z,4.28
2023-01-11T21:59:27.334Z,4.24
2023-01-11T22:04:30.251Z,4.09
2023-01-11T22:09:31.758Z,4.19
2023-01-11T22:14:33.273Z,4.15
2023-01-11T22:19:36.188Z,4.25
2023-01-11T22:24:37.734Z,4.09
2023-01-11T22:29:39.263Z,4.20
2023-01-11T22:34:42.102Z,4.18
2023-01-11T22:39:43.654Z,4.23
2023-01-11T22:44:45.304Z,4.25
2023-01-11T22:49:48.128Z,4.28
2023-01-11T22:54:49.715Z,4.20
2023-01-11T22:59:51.278Z,4.08
2023-01-11T23:04:54.156Z,4.12
2023-01-11T23:09:55.633Z,3.99
2023-01-11T23:14:57.139Z,3.99
2023-01-11T23:19:59.998Z,3.84
2023-01-11T23:25:01.473Z,3.66
2023-01-11T23:30:03.929Z,3.92
2023-01-11T23:35:07.409Z,4.01
2023-01-11T23:40:10.147Z,3.94
2023-01-11T23:45:11.667Z,3.98
2023-01-11T23:50:15.116Z,3.81
2023-01-11T23:55:16.635Z,3.78
